createdAt,value
2022-12-22T05:00:29.188Z,0.00
2022-12-22T05:01:29.298Z,0.00
2022-12-22T05:02:29.252Z,0.00
2022-12-22T05:03:29.183Z,0.00
2022-12-22T05:04:29.113Z,0.00
2022-12-22T05:05:29.082Z,0.00
2022-12-22T05:06:29.063Z,0.00
2022-12-22T05:07:29.053Z,0.00
2022-12-22T05:08:29.042Z,0.00
2022-12-22T05:09:29.043Z,0.00
2022-12-22T05:10:29.020Z,0.00
2022-12-22T05:11:34.025Z,0.00
2022-12-22T05:12:28.998Z,0.00
2022-12-22T05:13:28.982Z,0.00
2022-12-22T05:14:28.986Z,0.00
2022-12-22T05:15:28.955Z,0.00
2022-12-22T05:16:29.041Z,0.00
2022-12-22T05:17:28.944Z,0.00
2022-12-22T05:18:28.927Z,0.00
2022-12-22T05:19:30.845Z,0.00
2022-12-22T05:20:28.908Z,0.00
2022-12-22T05:21:28.891Z,0.00
2022-12-22T05:22:33.918Z,0.00
2022-12-22T05:23:28.877Z,0.00
2022-12-22T05:24:28.871Z,0.00
2022-12-22T05:25:34.659Z,0.00
2022-12-22T05:26:29.859Z,0.00
2022-12-22T05:27:28.829Z,0.00
2022-12-22T05:28:28.819Z,0.00
2022-12-22T05:29:28.837Z,0.00
2022-12-22T05:30:28.873Z,0.00
2022-12-22T05:31:28.931Z,0.00
2022-12-22T05:32:28.787Z,0.00
2022-12-22T05:33:33.786Z,0.00
2022-12-22T05:34:28.740Z,0.00
2022-12-22T05:35:28.750Z,0.00
2022-12-22T05:36:28.722Z,0.00
2022-12-22T05:37:28.719Z,0.00
2022-12-22T05:38:28.704Z,0.00
2022-12-22T05:39:28.716Z,0.00
2022-12-22T05:40:28.729Z,0.00
2022-12-22T05:41:28.675Z,0.00
2022-12-22T05:42:28.666Z,0.00
2022-12-22T05:43:28.645Z,0.00
2022-12-22T05:44:33.656Z,0.00
2022-12-22T05:45:28.631Z,0.00
2022-12-22T05:46:28.688Z,0.00
2022-12-22T05:47:28.604Z,0.00
2022-12-22T05:48:35.399Z,0.00
2022-12-22T05:49:29.574Z,0.00
2022-12-22T05:50:29.570Z,0.00
2022-12-22T05:51:28.552Z,0.00
2022-12-22T05:52:28.550Z,0.00
2022-12-22T05:53:28.542Z,0.00
2022-12-22T05:54:28.520Z,0.00
2022-12-22T05:55:33.548Z,0.00
2022-12-22T05:56:29.497Z,0.00
2022-12-22T05:57:28.483Z,0.00
2022-12-22T05:58:28.476Z,0.00
2022-12-22T05:59:28.468Z,0.00
2022-12-22T06:00:28.479Z,0.00
2022-12-22T06:01:28.468Z,0.00
2022-12-22T06:02:28.625Z,0.00
2022-12-22T06:03:28.644Z,0.00
2022-12-22T06:04:28.549Z,0.00
2022-12-22T06:05:28.405Z,0.00
2022-12-22T06:06:33.402Z,0.00
2022-12-22T06:07:28.386Z,0.00
2022-12-22T06:08:28.361Z,0.00
2022-12-22T06:09:28.362Z,0.00
2022-12-22T06:10:28.341Z,0.00
2022-12-22T06:11:28.324Z,0.00
2022-12-22T06:12:28.321Z,0.00
2022-12-22T06:13:28.311Z,0.00
2022-12-22T06:14:28.288Z,0.00
2022-12-22T06:15:28.294Z,0.00
2022-12-22T06:16:28.339Z,0.00
2022-12-22T06:17:34.913Z,0.00
2022-12-22T06:18:28.302Z,0.00
2022-12-22T06:19:28.232Z,0.00
2022-12-22T06:20:28.250Z,0.00
2022-12-22T06:21:28.220Z,0.00
2022-12-22T06:22:28.198Z,0.00
2022-12-22T06:23:28.195Z,0.00
2022-12-22T06:24:28.180Z,0.00
2022-12-22T06:25:28.192Z,0.00
2022-12-22T06:26:28.166Z,0.00
2022-12-22T06:27:28.152Z,0.00
2022-12-22T06:28:33.171Z,0.00
2022-12-22T06:29:28.139Z,0.00
2022-12-22T06:30:33.194Z,0.00
2022-12-22T06:31:29.210Z,0.00
2022-12-22T06:32:28.107Z,0.00
2022-12-22T06:33:28.070Z,0.00
2022-12-22T06:34:28.063Z,0.00
2022-12-22T06:35:28.074Z,0.00
2022-12-22T06:36:28.260Z,0.00
2022-12-22T06:37:28.046Z,0.00
2022-12-22T06:38:28.112Z,0.00
2022-12-22T06:39:33.046Z,0.00
2022-12-22T06:40:27.997Z,0.00
2022-12-22T06:41:28.027Z,0.00
2022-12-22T06:42:27.971Z,0.00
2022-12-22T06:43:27.988Z,0.00
2022-12-22T06:44:27.945Z,0.00
2022-12-22T06:45:27.935Z,0.00
2022-12-22T06:46:28.011Z,0.00
2022-12-22T06:47:27.916Z,0.00
2022-12-22T06:48:27.901Z,0.00
2022-12-22T06:49:27.908Z,0.00
2022-12-22T06:50:32.899Z,0.00
2022-12-22T06:51:27.895Z,4.00
2022-12-22T06:52:27.904Z,0.00
2022-12-22T06:53:27.845Z,0.00
2022-12-22T06:54:27.846Z,4.00
2022-12-22T06:55:27.848Z,0.00
2022-12-22T06:56:27.821Z,4.00
2022-12-22T06:57:28.844Z,4.00
2022-12-22T06:58:27.790Z,4.00
2022-12-22T06:59:27.803Z,8.00
2022-12-22T07:00:27.803Z,4.00
2022-12-22T07:01:32.949Z,4.00
2022-12-22T07:02:27.973Z,8.00
2022-12-22T07:03:27.949Z,4.00
2022-12-22T07:04:27.722Z,8.00
2022-12-22T07:05:27.746Z,12.00
2022-12-22T07:06:27.710Z,12.00
2022-12-22T07:07:27.689Z,12.00
2022-12-22T07:08:27.701Z,16.00
2022-12-22T07:09:27.747Z,16.00
2022-12-22T07:10:27.735Z,16.00
2022-12-22T07:11:27.662Z,20.00
2022-12-22T07:12:32.652Z,24.00
2022-12-22T07:13:27.616Z,20.00
2022-12-22T07:14:27.616Z,16.00
2022-12-22T07:15:27.609Z,24.00
2022-12-22T07:16:27.652Z,32.00
2022-12-22T07:17:27.584Z,32.00
2022-12-22T07:18:27.638Z,44.00
2022-12-22T07:19:27.654Z,48.00
2022-12-22T07:20:27.548Z,44.00
2022-12-22T07:21:27.670Z,52.00
2022-12-22T07:22:30.466Z,52.00
2022-12-22T07:23:32.553Z,72.00
2022-12-22T07:24:27.507Z,60.00
2022-12-22T07:25:27.485Z,72.00
2022-12-22T07:26:27.855Z,104.00
2022-12-22T07:27:27.465Z,116.00
2022-12-22T07:28:27.457Z,140.00
2022-12-22T07:29:27.434Z,160.00
2022-12-22T07:30:27.491Z,148.00
2022-12-22T07:31:27.538Z,196.00
2022-12-22T07:32:27.451Z,172.00
2022-12-22T07:33:27.405Z,188.00
2022-12-22T07:34:32.407Z,148.00
2022-12-22T07:35:27.367Z,136.00
2022-12-22T07:36:28.368Z,216.00
2022-12-22T07:37:27.343Z,192.00
2022-12-22T07:38:27.344Z,160.00
2022-12-22T07:39:27.385Z,192.00
2022-12-22T07:40:28.171Z,136.00
2022-12-22T07:41:27.346Z,140.00
2022-12-22T07:42:27.285Z,196.00
2022-12-22T07:43:27.294Z,188.00
2022-12-22T07:44:27.265Z,148.00
2022-12-22T07:45:32.283Z,252.00
2022-12-22T07:46:27.558Z,316.00
2022-12-22T07:47:34.839Z,284.00
2022-12-22T07:48:28.227Z,316.00
2022-12-22T07:49:27.210Z,348.00
2022-12-22T07:50:27.283Z,396.00
2022-12-22T07:51:27.195Z,348.00
2022-12-22T07:52:27.186Z,308.00
2022-12-22T07:53:27.168Z,272.00
2022-12-22T07:54:27.163Z,292.00
2022-12-22T07:55:27.162Z,336.00
2022-12-22T07:56:32.165Z,292.00
2022-12-22T07:57:27.134Z,352.00
2022-12-22T07:58:27.105Z,384.00
2022-12-22T07:59:27.107Z,336.00
2022-12-22T08:00:27.082Z,396.00
2022-12-22T08:01:27.248Z,416.00
2022-12-22T08:02:27.144Z,412.00
2022-12-22T08:03:27.143Z,372.00
2022-12-22T08:04:27.108Z,388.00
2022-12-22T08:05:27.045Z,548.00
2022-12-22T08:06:27.031Z,632.00
2022-12-22T08:07:32.031Z,668.00
2022-12-22T08:08:26.987Z,624.00
2022-12-22T08:09:26.973Z,648.00
2022-12-22T08:10:26.980Z,524.00
2022-12-22T08:11:26.999Z,688.00
2022-12-22T08:12:27.037Z,688.00
2022-12-22T08:13:26.981Z,868.00
2022-12-22T08:14:26.921Z,772.00
2022-12-22T08:15:26.917Z,832.00
2022-12-22T08:16:26.975Z,740.00
2022-12-22T08:17:26.898Z,876.00
2022-12-22T08:18:31.920Z,792.00
2022-12-22T08:19:26.879Z,832.00
2022-12-22T08:20:26.943Z,1064.00
2022-12-22T08:21:26.888Z,1064.00
2022-12-22T08:22:26.847Z,1128.00
2022-12-22T08:23:26.820Z,1132.00
2022-12-22T08:24:26.822Z,1112.00
2022-12-22T08:25:26.805Z,1016.00
2022-12-22T08:26:27.794Z,980.00
2022-12-22T08:27:26.832Z,808.00
2022-12-22T08:28:26.776Z,876.00
2022-12-22T08:29:31.853Z,988.00
2022-12-22T08:30:26.740Z,1364.00
2022-12-22T08:31:26.772Z,1728.00
2022-12-22T08:32:27.726Z,1524.00
2022-12-22T08:33:26.703Z,1816.00
2022-12-22T08:34:26.742Z,1708.00
2022-12-22T08:35:26.683Z,1644.00
2022-12-22T08:36:26.705Z,2004.00
2022-12-22T08:37:26.669Z,2256.00
2022-12-22T08:38:26.652Z,2664.00
2022-12-22T08:39:26.659Z,1764.00
2022-12-22T08:40:31.714Z,2448.00
2022-12-22T08:41:26.618Z,2380.00
2022-12-22T08:42:26.649Z,2296.00
2022-12-22T08:43:27.630Z,2268.00
2022-12-22T08:44:26.581Z,2468.00
2022-12-22T08:45:26.577Z,2460.00
2022-12-22T08:46:26.631Z,2152.00
2022-12-22T08:47:26.634Z,2184.00
2022-12-22T08:48:26.556Z,1928.00
2022-12-22T08:49:26.544Z,1828.00
2022-12-22T08:50:26.515Z,1488.00
2022-12-22T08:51:31.524Z,1228.00
2022-12-22T08:52:27.507Z,1276.00
2022-12-22T08:54:02.592Z,1276.00
2022-12-22T08:54:27.472Z,1324.00
2022-12-22T08:55:26.463Z,1164.00
2022-12-22T08:56:26.470Z,1148.00
2022-12-22T08:57:26.474Z,1120.00
2022-12-22T08:58:26.447Z,1096.00
2022-12-22T08:59:26.440Z,1160.00
2022-12-22T09:00:26.403Z,1804.00
2022-12-22T09:01:26.570Z,2180.00
2022-12-22T09:02:31.491Z,2000.00
2022-12-22T09:03:26.488Z,2244.00
2022-12-22T09:04:26.360Z,2188.00
2022-12-22T09:05:26.380Z,2412.00
2022-12-22T09:06:27.621Z,2924.00
2022-12-22T09:07:26.343Z,2900.00
2022-12-22T09:08:26.320Z,2356.00
2022-12-22T09:09:26.297Z,2608.00
2022-12-22T09:10:26.303Z,2712.00
2022-12-22T09:11:26.276Z,1988.00
2022-12-22T09:12:26.299Z,1756.00
2022-12-22T09:13:31.269Z,1748.00
2022-12-22T09:14:26.240Z,1876.00
2022-12-22T09:15:26.258Z,1588.00
2022-12-22T09:16:26.292Z,1548.00
2022-12-22T09:17:26.241Z,1596.00
2022-12-22T09:18:26.228Z,1384.00
2022-12-22T09:19:26.180Z,1300.00
2022-12-22T09:20:26.173Z,1404.00
2022-12-22T09:21:26.191Z,1352.00
2022-12-22T09:22:28.567Z,1368.00
2022-12-22T09:23:26.163Z,1416.00
2022-12-22T09:24:31.210Z,1700.00
2022-12-22T09:25:26.114Z,2128.00
2022-12-22T09:26:26.118Z,1476.00
2022-12-22T09:27:26.120Z,1568.00
2022-12-22T09:28:26.090Z,1564.00
2022-12-22T09:29:26.072Z,1140.00
2022-12-22T09:30:26.080Z,1180.00
2022-12-22T09:31:26.135Z,1460.00
2022-12-22T09:32:26.035Z,1252.00
2022-12-22T09:33:26.033Z,1320.00
2022-12-22T09:34:26.022Z,1296.00
2022-12-22T09:35:31.044Z,1108.00
2022-12-22T09:36:26.000Z,1436.00
2022-12-22T09:37:26.038Z,1528.00
2022-12-22T09:38:25.987Z,1628.00
2022-12-22T09:39:29.294Z,1664.00
2022-12-22T09:40:25.970Z,1224.00
2022-12-22T09:41:25.957Z,828.00
2022-12-22T09:42:25.940Z,900.00
2022-12-22T09:43:25.933Z,840.00
2022-12-22T09:44:25.910Z,680.00
2022-12-22T09:45:25.886Z,660.00
2022-12-22T09:46:31.058Z,700.00
2022-12-22T09:47:25.866Z,740.00
2022-12-22T09:48:25.867Z,688.00
2022-12-22T09:49:25.840Z,820.00
2022-12-22T09:50:25.835Z,760.00
2022-12-22T09:51:27.447Z,876.00
2022-12-22T09:52:25.840Z,816.00
2022-12-22T09:53:25.807Z,792.00
2022-12-22T09:54:25.792Z,640.00
2022-12-22T09:55:25.779Z,648.00
2022-12-22T09:56:25.777Z,672.00
2022-12-22T09:57:30.777Z,708.00
2022-12-22T09:58:26.646Z,692.00
2022-12-22T09:59:25.738Z,648.00
2022-12-22T10:00:26.720Z,572.00
2022-12-22T10:01:25.889Z,480.00
2022-12-22T10:02:25.799Z,516.00
2022-12-22T10:03:25.789Z,520.00
2022-12-22T10:04:25.710Z,608.00
2022-12-22T10:05:25.660Z,548.00
2022-12-22T10:06:26.647Z,668.00
2022-12-22T10:07:25.653Z,656.00
2022-12-22T10:08:30.815Z,752.00
2022-12-22T10:09:52.099Z,804.00
2022-12-22T10:10:26.602Z,736.00
2022-12-22T10:11:25.591Z,776.00
2022-12-22T10:12:25.602Z,708.00
2022-12-22T10:13:25.593Z,720.00
2022-12-22T10:14:25.557Z,820.00
2022-12-22T10:15:25.589Z,724.00
2022-12-22T10:16:25.598Z,688.00
2022-12-22T10:17:25.541Z,712.00
2022-12-22T10:18:25.546Z,840.00
2022-12-22T10:19:30.527Z,1008.00
2022-12-22T10:20:25.630Z,872.00
2022-12-22T10:21:25.482Z,992.00
2022-12-22T10:22:25.473Z,900.00
2022-12-22T10:23:25.469Z,776.00
2022-12-22T10:24:25.458Z,732.00
2022-12-22T10:25:25.438Z,880.00
2022-12-22T10:26:28.460Z,784.00
2022-12-22T10:27:28.987Z,1020.00
2022-12-22T10:28:25.485Z,908.00
2022-12-22T10:29:25.392Z,864.00
2022-12-22T10:30:30.402Z,980.00
2022-12-22T10:31:25.419Z,1128.00
2022-12-22T10:32:25.432Z,1164.00
2022-12-22T10:33:25.340Z,1116.00
2022-12-22T10:34:25.361Z,816.00
2022-12-22T10:35:25.343Z,868.00
2022-12-22T10:36:25.336Z,824.00
2022-12-22T10:37:25.319Z,816.00
2022-12-22T10:38:25.293Z,808.00
2022-12-22T10:39:25.282Z,824.00
2022-12-22T10:40:25.276Z,864.00
2022-12-22T10:41:30.291Z,1148.00
2022-12-22T10:42:25.246Z,1220.00
2022-12-22T10:43:25.225Z,1492.00
2022-12-22T10:44:25.290Z,1220.00
2022-12-22T10:45:25.221Z,1068.00
2022-12-22T10:46:25.285Z,1116.00
2022-12-22T10:47:25.181Z,1088.00
2022-12-22T10:48:25.187Z,976.00
2022-12-22T10:49:25.208Z,880.00
2022-12-22T10:50:25.187Z,1172.00
2022-12-22T10:51:25.162Z,1128.00
2022-12-22T10:52:32.317Z,1268.00
2022-12-22T10:53:25.123Z,1208.00
2022-12-22T10:54:25.125Z,1748.00
2022-12-22T10:55:25.094Z,1872.00
2022-12-22T10:56:25.080Z,1816.00
2022-12-22T10:57:26.083Z,2144.00
2022-12-22T10:58:25.064Z,2304.00
2022-12-22T10:59:25.056Z,2352.00
2022-12-22T11:00:25.061Z,2008.00
2022-12-22T11:01:25.255Z,1804.00
2022-12-22T11:02:25.223Z,1872.00
2022-12-22T11:03:30.325Z,1420.00
2022-12-22T11:04:25.037Z,1760.00
2022-12-22T11:05:24.989Z,1584.00
2022-12-22T11:06:25.050Z,1908.00
2022-12-22T11:07:24.967Z,2408.00
2022-12-22T11:08:24.949Z,2372.00
2022-12-22T11:09:33.807Z,2048.00
2022-12-22T11:10:25.921Z,1472.00
2022-12-22T11:11:24.913Z,1092.00
2022-12-22T11:12:24.902Z,1116.00
2022-12-22T11:13:24.887Z,1044.00
2022-12-22T11:14:29.934Z,904.00
2022-12-22T11:15:25.182Z,980.00
2022-12-22T11:16:24.921Z,1584.00
2022-12-22T11:17:24.841Z,1020.00
2022-12-22T11:18:24.836Z,1120.00
2022-12-22T11:19:24.827Z,1248.00
2022-12-22T11:20:24.822Z,1044.00
2022-12-22T11:21:24.876Z,1016.00
2022-12-22T11:22:24.825Z,1064.00
2022-12-22T11:23:24.790Z,1152.00
2022-12-22T11:24:24.761Z,1168.00
2022-12-22T11:25:29.781Z,940.00
2022-12-22T11:26:24.739Z,796.00
2022-12-22T11:27:24.740Z,916.00
2022-12-22T11:28:24.730Z,924.00
2022-12-22T11:29:24.714Z,832.00
2022-12-22T11:30:24.729Z,788.00
2022-12-22T11:31:24.768Z,716.00
2022-12-22T11:32:24.681Z,664.00
2022-12-22T11:33:24.661Z,524.00
2022-12-22T11:34:24.662Z,556.00
2022-12-22T11:35:24.650Z,524.00
2022-12-22T11:36:29.804Z,592.00
2022-12-22T11:37:24.626Z,680.00
2022-12-22T11:38:24.624Z,624.00
2022-12-22T11:39:24.609Z,556.00
2022-12-22T11:40:24.594Z,628.00
2022-12-22T11:41:24.584Z,712.00
2022-12-22T11:42:24.563Z,624.00
2022-12-22T11:43:24.549Z,668.00
2022-12-22T11:44:24.539Z,580.00
2022-12-22T11:45:24.528Z,624.00
2022-12-22T11:46:24.618Z,528.00
2022-12-22T11:47:29.528Z,436.00
2022-12-22T11:48:24.501Z,384.00
2022-12-22T11:49:24.484Z,352.00
2022-12-22T11:51:01.162Z,356.00
2022-12-22T11:51:27.463Z,368.00
2022-12-22T11:52:24.449Z,404.00
2022-12-22T11:53:24.431Z,372.00
2022-12-22T11:54:24.462Z,464.00
2022-12-22T11:55:24.466Z,548.00
2022-12-22T11:56:24.429Z,512.00
2022-12-22T11:57:24.481Z,484.00
2022-12-22T11:58:29.405Z,372.00
2022-12-22T11:59:24.372Z,380.00
2022-12-22T12:00:32.717Z,372.00
2022-12-22T12:01:26.376Z,340.00
2022-12-22T12:02:24.567Z,416.00
2022-12-22T12:03:24.574Z,376.00
2022-12-22T12:04:24.369Z,360.00
2022-12-22T12:05:24.324Z,368.00
2022-12-22T12:06:24.328Z,448.00
2022-12-22T12:07:26.197Z,516.00
2022-12-22T12:08:24.284Z,504.00
2022-12-22T12:09:29.309Z,396.00
2022-12-22T12:10:24.249Z,468.00
2022-12-22T12:11:24.397Z,480.00
2022-12-22T12:12:24.223Z,460.00
2022-12-22T12:13:30.088Z,436.00
2022-12-22T12:14:25.259Z,416.00
2022-12-22T12:15:24.186Z,480.00
2022-12-22T12:16:24.316Z,460.00
2022-12-22T12:17:24.162Z,532.00
2022-12-22T12:18:24.151Z,620.00
2022-12-22T12:19:27.160Z,584.00
2022-12-22T12:20:29.153Z,676.00
2022-12-22T12:21:24.125Z,616.00
2022-12-22T12:22:24.117Z,508.00
2022-12-22T12:23:24.098Z,604.00
2022-12-22T12:24:24.088Z,540.00
2022-12-22T12:25:26.232Z,524.00
2022-12-22T12:26:24.079Z,580.00
2022-12-22T12:27:24.071Z,612.00
2022-12-22T12:28:24.044Z,812.00
2022-12-22T12:29:24.057Z,892.00
2022-12-22T12:30:39.890Z,992.00
2022-12-22T12:31:30.141Z,868.00
2022-12-22T12:32:24.017Z,880.00
2022-12-22T12:33:24.001Z,924.00
2022-12-22T12:34:24.131Z,984.00
2022-12-22T12:35:23.974Z,932.00
2022-12-22T12:36:23.955Z,876.00
2022-12-22T12:37:26.735Z,896.00
2022-12-22T12:38:56.875Z,928.00
2022-12-22T12:39:24.920Z,920.00
2022-12-22T12:40:23.897Z,868.00
2022-12-22T12:41:23.918Z,848.00
2022-12-22T12:42:28.945Z,824.00
2022-12-22T12:43:23.867Z,796.00
2022-12-22T12:44:23.858Z,784.00
2022-12-22T12:45:23.853Z,780.00
2022-12-22T12:46:23.921Z,788.00
2022-12-22T12:47:23.841Z,760.00
2022-12-22T12:48:23.835Z,736.00
2022-12-22T12:49:26.527Z,740.00
2022-12-22T12:50:23.798Z,748.00
2022-12-22T12:51:23.781Z,740.00
2022-12-22T12:52:23.770Z,784.00
2022-12-22T12:53:28.795Z,804.00
2022-12-22T12:54:23.786Z,780.00
2022-12-22T12:55:29.747Z,788.00
2022-12-22T12:56:24.718Z,820.00
2022-12-22T12:57:23.732Z,856.00
2022-12-22T12:58:23.937Z,896.00
2022-12-22T12:59:23.741Z,936.00
2022-12-22T13:00:23.674Z,940.00
2022-12-22T13:01:23.719Z,968.00
2022-12-22T13:02:23.938Z,1020.00
2022-12-22T13:03:52.965Z,1016.00
2022-12-22T13:04:29.777Z,964.00
2022-12-22T13:05:23.623Z,968.00
2022-12-22T13:06:23.603Z,1032.00
2022-12-22T13:07:23.597Z,1152.00
2022-12-22T13:08:23.602Z,1340.00
2022-12-22T13:10:24.568Z,1536.00
2022-12-22T13:11:52.617Z,1612.00
2022-12-22T13:12:24.973Z,1864.00
2022-12-22T13:13:23.576Z,1840.00
2022-12-22T13:14:23.615Z,1800.00
2022-12-22T13:15:28.527Z,1996.00
2022-12-22T13:16:23.659Z,2228.00
2022-12-22T13:17:23.560Z,2284.00
2022-12-22T13:18:23.484Z,2320.00
2022-12-22T13:19:23.483Z,2424.00
2022-12-22T13:20:23.448Z,2356.00
2022-12-22T13:21:54.376Z,2388.00
2022-12-22T13:22:24.432Z,2208.00
2022-12-22T13:23:23.439Z,2144.00
2022-12-22T13:24:25.912Z,2000.00
2022-12-22T13:25:23.398Z,2012.00
2022-12-22T13:26:28.677Z,2316.00
2022-12-22T13:27:23.377Z,2636.00
2022-12-22T13:28:23.377Z,2692.00
2022-12-22T13:29:23.390Z,2852.00
2022-12-22T13:30:23.337Z,3108.00
2022-12-22T13:31:23.394Z,3220.00
2022-12-22T13:32:23.364Z,3296.00
2022-12-22T13:33:23.303Z,3448.00
2022-12-22T13:34:23.311Z,3804.00
2022-12-22T13:35:33.835Z,4384.00
2022-12-22T13:36:24.265Z,4212.00
2022-12-22T13:37:28.288Z,4052.00
2022-12-22T13:38:23.243Z,3928.00
2022-12-22T13:39:23.246Z,3796.00
2022-12-22T13:40:23.236Z,4072.00
2022-12-22T13:41:27.448Z,4144.00
2022-12-22T13:42:23.253Z,3748.00
2022-12-22T13:43:23.238Z,3260.00
2022-12-22T13:44:23.185Z,2852.00
2022-12-22T13:45:23.187Z,2808.00
2022-12-22T13:46:23.244Z,2768.00
2022-12-22T13:47:24.143Z,2620.00
2022-12-22T13:48:28.157Z,2312.00
2022-12-22T13:49:51.572Z,2076.00
2022-12-22T13:50:24.115Z,2096.00
2022-12-22T13:51:23.101Z,1796.00
2022-12-22T13:52:23.083Z,1648.00
2022-12-22T13:53:49.940Z,1552.00
2022-12-22T13:54:24.123Z,1432.00
2022-12-22T13:55:23.059Z,1584.00
2022-12-22T13:56:23.048Z,1680.00
2022-12-22T13:57:23.054Z,1512.00
2022-12-22T13:58:23.025Z,1456.00
2022-12-22T13:59:28.066Z,1336.00
2022-12-22T14:00:22.998Z,1308.00
2022-12-22T14:01:23.071Z,1200.00
2022-12-22T14:02:23.203Z,1048.00
2022-12-22T14:03:57.696Z,948.00
2022-12-22T14:04:24.026Z,868.00
2022-12-22T14:05:22.997Z,820.00
2022-12-22T14:06:22.928Z,748.00
2022-12-22T14:07:22.924Z,728.00
2022-12-22T14:08:22.913Z,632.00
2022-12-22T14:09:22.917Z,536.00
2022-12-22T14:10:27.921Z,484.00
2022-12-22T14:11:22.865Z,412.00
2022-12-22T14:12:22.912Z,488.00
2022-12-22T14:13:22.848Z,472.00
2022-12-22T14:14:22.830Z,376.00
2022-12-22T14:15:22.865Z,404.00
2022-12-22T14:16:22.869Z,336.00
2022-12-22T14:17:22.851Z,272.00
2022-12-22T14:18:22.790Z,264.00
2022-12-22T14:19:22.820Z,268.00
2022-12-22T14:20:22.798Z,260.00
2022-12-22T14:21:27.836Z,268.00
2022-12-22T14:22:22.746Z,288.00
2022-12-22T14:23:22.774Z,296.00
2022-12-22T14:24:22.720Z,284.00
2022-12-22T14:25:22.733Z,256.00
2022-12-22T14:26:22.712Z,280.00
2022-12-22T14:27:22.778Z,228.00
2022-12-22T14:28:22.670Z,212.00
2022-12-22T14:29:22.666Z,256.00
2022-12-22T14:30:22.660Z,312.00
2022-12-22T14:31:22.737Z,352.00
2022-12-22T14:32:28.694Z,368.00
2022-12-22T14:33:22.667Z,304.00
2022-12-22T14:34:22.614Z,248.00
2022-12-22T14:35:23.635Z,232.00
2022-12-22T14:36:22.603Z,232.00
2022-12-22T14:37:27.057Z,276.00
2022-12-22T14:38:23.642Z,264.00
2022-12-22T14:39:22.609Z,216.00
2022-12-22T14:40:22.541Z,196.00
2022-12-22T14:41:22.551Z,248.00
2022-12-22T14:42:22.532Z,240.00
2022-12-22T14:43:27.563Z,180.00
2022-12-22T14:44:22.535Z,180.00
2022-12-22T14:45:22.482Z,152.00
2022-12-22T14:46:22.571Z,148.00
2022-12-22T14:47:22.470Z,160.00
2022-12-22T14:48:22.471Z,204.00
2022-12-22T14:49:22.434Z,176.00
2022-12-22T14:50:22.420Z,168.00
2022-12-22T14:51:22.424Z,208.00
2022-12-22T14:52:22.397Z,228.00
2022-12-22T14:53:22.407Z,236.00
2022-12-22T14:54:27.403Z,212.00
2022-12-22T14:55:22.380Z,200.00
2022-12-22T14:56:22.369Z,208.00
2022-12-22T14:57:22.360Z,248.00
2022-12-22T14:58:22.336Z,256.00
2022-12-22T14:59:22.343Z,240.00
2022-12-22T15:00:22.308Z,236.00
2022-12-22T15:01:22.491Z,228.00
2022-12-22T15:02:22.531Z,196.00
2022-12-22T15:03:22.403Z,172.00
2022-12-22T15:04:23.301Z,156.00
2022-12-22T15:05:27.287Z,176.00
2022-12-22T15:06:22.289Z,172.00
2022-12-22T15:08:03.561Z,216.00
2022-12-22T15:08:23.219Z,192.00
2022-12-22T15:09:47.112Z,192.00
2022-12-22T15:10:23.194Z,228.00
2022-12-22T15:11:22.350Z,196.00
2022-12-22T15:12:23.181Z,216.00
2022-12-22T15:13:22.163Z,228.00
2022-12-22T15:14:22.209Z,216.00
2022-12-22T15:15:22.200Z,204.00
2022-12-22T15:16:28.012Z,184.00
2022-12-22T15:17:22.117Z,180.00
2022-12-22T15:18:22.106Z,172.00
2022-12-22T15:19:22.121Z,152.00
2022-12-22T15:20:22.202Z,124.00
2022-12-22T15:21:22.088Z,116.00
2022-12-22T15:22:22.069Z,92.00
2022-12-22T15:23:22.055Z,56.00
2022-12-22T15:24:22.060Z,44.00
2022-12-22T15:25:22.034Z,32.00
2022-12-22T15:26:22.042Z,24.00
2022-12-22T15:27:27.028Z,32.00
2022-12-22T15:28:22.001Z,36.00
2022-12-22T15:29:22.000Z,32.00
2022-12-22T15:30:21.971Z,28.00
2022-12-22T15:31:22.014Z,24.00
2022-12-22T15:32:21.951Z,20.00
2022-12-22T15:33:21.942Z,24.00
2022-12-22T15:34:21.949Z,36.00
2022-12-22T15:35:21.918Z,44.00
2022-12-22T15:36:21.941Z,40.00
2022-12-22T15:37:21.889Z,32.00
2022-12-22T15:38:26.906Z,28.00
2022-12-22T15:39:21.869Z,24.00
2022-12-22T15:40:21.891Z,24.00
2022-12-22T15:41:21.859Z,20.00
2022-12-22T15:42:21.911Z,16.00
2022-12-22T15:43:55.839Z,16.00
2022-12-22T15:44:22.828Z,12.00
2022-12-22T15:45:21.811Z,16.00
2022-12-22T15:46:21.906Z,12.00
2022-12-22T15:47:21.774Z,12.00
2022-12-22T15:48:21.764Z,8.00
2022-12-22T15:49:26.807Z,4.00
2022-12-22T15:50:21.746Z,4.00
2022-12-22T15:51:21.744Z,4.00
2022-12-22T15:52:21.889Z,4.00
2022-12-22T15:53:21.715Z,4.00
2022-12-22T15:54:21.696Z,4.00
2022-12-22T15:55:21.691Z,0.00
2022-12-22T15:56:21.701Z,0.00
2022-12-22T15:57:21.672Z,0.00
2022-12-22T15:58:21.657Z,0.00
2022-12-22T15:59:21.639Z,0.00
2022-12-22T16:00:26.664Z,0.00
2022-12-22T16:01:21.741Z,0.00
2022-12-22T16:02:21.848Z,0.00
2022-12-22T16:03:21.847Z,0.00
2022-12-22T16:04:21.588Z,0.00
2022-12-22T16:05:21.581Z,0.00
2022-12-22T16:06:21.588Z,0.00
2022-12-22T16:07:21.631Z,0.00
2022-12-22T16:08:21.594Z,0.00
2022-12-22T16:09:21.530Z,0.00
2022-12-22T16:10:21.517Z,0.00
2022-12-22T16:11:26.538Z,0.00
2022-12-22T16:12:21.516Z,0.00
2022-12-22T16:13:21.492Z,0.00
2022-12-22T16:14:21.494Z,0.00
2022-12-22T16:15:21.474Z,0.00
2022-12-22T16:16:21.642Z,0.00
2022-12-22T16:17:21.467Z,0.00
2022-12-22T16:18:21.460Z,0.00
2022-12-22T16:19:21.421Z,0.00
2022-12-22T16:20:21.434Z,0.00
2022-12-22T16:21:21.520Z,0.00
2022-12-22T16:22:26.406Z,0.00
2022-12-22T16:23:21.911Z,0.00
2022-12-22T16:24:21.399Z,0.00
2022-12-22T16:25:21.391Z,0.00
2022-12-22T16:26:21.368Z,0.00
2022-12-22T16:27:21.342Z,0.00
2022-12-22T16:28:21.316Z,0.00
2022-12-22T16:29:21.321Z,0.00
2022-12-22T16:30:21.293Z,0.00
2022-12-22T16:31:21.471Z,0.00
2022-12-22T16:32:21.354Z,0.00
2022-12-22T16:33:26.283Z,0.00
2022-12-22T16:34:21.268Z,0.00
2022-12-22T16:35:21.277Z,0.00
2022-12-22T16:36:21.273Z,0.00
2022-12-22T16:37:21.258Z,0.00
2022-12-22T16:38:21.218Z,0.00
2022-12-22T16:39:21.185Z,0.00
2022-12-22T16:40:21.217Z,0.00
2022-12-22T16:41:21.169Z,0.00
2022-12-22T16:43:51.034Z,0.00
2022-12-22T16:44:50.985Z,0.00
2022-12-22T16:45:29.963Z,0.00
2022-12-22T16:46:30.045Z,0.00
2022-12-22T16:47:29.966Z,0.00
2022-12-22T16:48:29.931Z,0.00
2022-12-22T16:49:29.947Z,0.00
2022-12-22T16:50:29.955Z,0.00
2022-12-22T16:51:29.903Z,0.00
2022-12-22T16:52:29.904Z,0.00
2022-12-22T16:53:29.874Z,0.00
2022-12-22T16:54:34.893Z,0.00
2022-12-22T16:55:29.886Z,0.00
2022-12-22T16:56:29.895Z,0.00
2022-12-22T16:57:29.851Z,0.00
2022-12-22T16:58:29.826Z,0.00
2022-12-22T16:59:29.861Z,0.00
2022-12-22T17:00:29.815Z,0.00
2022-12-22T17:01:30.023Z,0.00
2022-12-22T17:02:29.990Z,0.00
2022-12-22T17:03:30.987Z,0.00
2022-12-22T17:04:29.766Z,0.00
2022-12-22T17:05:40.298Z,0.00
2022-12-22T17:06:30.727Z,0.00
2022-12-22T17:07:29.767Z,0.00
2022-12-22T17:08:29.727Z,0.00
2022-12-22T17:09:29.703Z,0.00
2022-12-22T17:10:30.686Z,0.00
2022-12-22T17:11:29.715Z,0.00
2022-12-22T17:12:29.663Z,0.00
2022-12-22T17:13:29.675Z,0.00
2022-12-22T17:14:29.642Z,0.00
2022-12-22T17:15:30.739Z,0.00
2022-12-22T17:16:34.712Z,0.00
2022-12-22T17:17:35.544Z,0.00
2022-12-22T17:18:30.607Z,0.00
2022-12-22T17:19:29.589Z,0.00
2022-12-22T17:20:29.636Z,0.00
2022-12-22T17:21:29.598Z,0.00
2022-12-22T17:22:29.546Z,0.00
2022-12-22T17:23:29.605Z,0.00
2022-12-22T17:24:29.524Z,0.00
2022-12-22T17:25:29.526Z,0.00
2022-12-22T17:26:29.501Z,0.00
2022-12-22T17:27:34.534Z,0.00
2022-12-22T17:28:29.506Z,0.00
2022-12-22T17:29:29.469Z,0.00
2022-12-22T17:30:29.466Z,0.00
2022-12-22T17:31:29.545Z,0.00
2022-12-22T17:32:29.435Z,0.00
2022-12-22T17:33:29.448Z,0.00
2022-12-22T17:34:29.443Z,0.00
2022-12-22T17:35:29.400Z,0.00
2022-12-22T17:36:29.391Z,0.00
2022-12-22T17:37:29.406Z,0.00
2022-12-22T17:38:34.435Z,0.00
2022-12-22T17:39:29.357Z,0.00
2022-12-22T17:40:29.484Z,0.00
2022-12-22T17:41:29.346Z,0.00